<?xml version='1.0' encoding='UTF-8'?><gpx version="1.1" creator="JPX - https://github.com/jenetics/jpx" xmlns="http://www.topografix.com/GPX/1/1"><trk><trkseg><trkpt lat="43.653778986189664" lon="10.675965805488623"><ele>20.0</ele><time>2026-04-28T06:28:52.001Z</time></trkpt><trkpt lat="43.653758909911566" lon="10.676217682284559"><ele>20.0</ele><time>2026-04-28T06:28:53.001Z</time></trkpt><trkpt lat="43.65374345431247" lon="10.676471858068693"><ele>20.0</ele><time>2026-04-28T06:28:54.001Z</time></trkpt><trkpt lat="43.6537345524565" lon="10.6767242588944"><ele>20.0</ele><time>2026-04-28T06:28:55.001Z</time></trkpt><trkpt lat="43.65372908259231" lon="10.676979515995935"><ele>20.0</ele><time>2026-04-28T06:28:56.001Z</time></trkpt><trkpt lat="43.65372659666621" lon="10.677234640727997"><ele>20.0</ele><time>2026-04-28T06:28:57.001Z</time></trkpt><trkpt lat="43.65373600243571" lon="10.677487540163488"><ele>20.0</ele><time>2026-04-28T06:28:58.001Z</time></trkpt><trkpt lat="43.653751370967235" lon="10.677736492862085"><ele>20.0</ele><time>2026-04-28T06:28:59.001Z</time></trkpt><trkpt lat="43.653766027839545" lon="10.677978792977015"><ele>20.0</ele><time>2026-04-28T06:29:00.001Z</time></trkpt><trkpt lat="43.65378835623374" lon="10.678216223703101"><ele>20.666666666666668</ele><time>2026-04-28T06:29:01.001Z</time></trkpt><trkpt lat="43.653817599941284" lon="10.678448019315548"><ele>21.333333333333332</ele><time>2026-04-28T06:29:02.001Z</time></trkpt><trkpt lat="43.65384824215636" lon="10.67867404055549"><ele>22.0</ele><time>2026-04-28T06:29:03.001Z</time></trkpt><trkpt lat="43.6538790389549" lon="10.678899105602422"><ele>22.0</ele><time>2026-04-28T06:29:04.001Z</time></trkpt><trkpt lat="43.653916790285805" lon="10.679119082501517"><ele>22.0</ele><time>2026-04-28T06:29:05.001Z</time></trkpt><trkpt lat="43.653955920286506" lon="10.679336141089964"><ele>22.0</ele><time>2026-04-28T06:29:06.001Z</time></trkpt><trkpt lat="43.65400102695496" lon="10.67954843291917"><ele>22.666666666666664</ele><time>2026-04-28T06:29:07.001Z</time></trkpt><trkpt lat="43.65405102314856" lon="10.679754158126642"><ele>23.333333333333332</ele><time>2026-04-28T06:29:08.001Z</time></trkpt><trkpt lat="43.654101732366726" lon="10.679959605716162"><ele>24.0</ele><time>2026-04-28T06:29:09.001Z</time></trkpt><trkpt lat="43.65415478232068" lon="10.68016260592154"><ele>24.666666666666664</ele><time>2026-04-28T06:29:10.001Z</time></trkpt><trkpt lat="43.65421109514191" lon="10.68036419909192"><ele>25.333333333333332</ele><time>2026-04-28T06:29:11.001Z</time></trkpt><trkpt lat="43.654268239636274" lon="10.680567017365714"><ele>26.0</ele><time>2026-04-28T06:29:12.001Z</time></trkpt><trkpt lat="43.65432987070193" lon="10.68075797246139"><ele>26.0</ele><time>2026-04-28T06:29:13.001Z</time></trkpt><trkpt lat="43.65439469068607" lon="10.680947028993687"><ele>26.0</ele><time>2026-04-28T06:29:14.001Z</time></trkpt><trkpt lat="43.654461075643745" lon="10.681131200337443"><ele>26.0</ele><time>2026-04-28T06:29:15.001Z</time></trkpt><trkpt lat="43.65453269059582" lon="10.681318351921766"><ele>31.333333333333332</ele><time>2026-04-28T06:29:16.001Z</time></trkpt><trkpt lat="43.65460937192231" lon="10.681504344879635"><ele>36.666666666666664</ele><time>2026-04-28T06:29:17.001Z</time></trkpt><trkpt lat="43.654689205038125" lon="10.68169530573811"><ele>42.0</ele><time>2026-04-28T06:29:18.001Z</time></trkpt><trkpt lat="43.654775214839745" lon="10.68188119683775"><ele>41.666666666666664</ele><time>2026-04-28T06:29:19.001Z</time></trkpt><trkpt lat="43.65486762453551" lon="10.682065148607917"><ele>41.33333333333333</ele><time>2026-04-28T06:29:20.001Z</time></trkpt><trkpt lat="43.654970361361016" lon="10.682252851738655"><ele>41.0</ele><time>2026-04-28T06:29:21.001Z</time></trkpt><trkpt lat="43.65507030467937" lon="10.682430106722379"><ele>41.0</ele><time>2026-04-28T06:29:22.001Z</time></trkpt><trkpt lat="43.65517694865047" lon="10.682605138709842"><ele>41.0</ele><time>2026-04-28T06:29:23.001Z</time></trkpt><trkpt lat="43.655288518019695" lon="10.682778913902158"><ele>41.0</ele><time>2026-04-28T06:29:24.001Z</time></trkpt><trkpt lat="43.65540085512591" lon="10.682955244366998"><ele>40.666666666666664</ele><time>2026-04-28T06:29:25.001Z</time></trkpt><trkpt lat="43.65551621903737" lon="10.683137308790435"><ele>40.333333333333336</ele><time>2026-04-28T06:29:26.001Z</time></trkpt><trkpt lat="43.655632746959455" lon="10.683318311152732"><ele>40.0</ele><time>2026-04-28T06:29:27.001Z</time></trkpt><trkpt lat="43.655755823031704" lon="10.683504539556429"><ele>38.66666666666667</ele><time>2026-04-28T06:29:28.001Z</time></trkpt><trkpt lat="43.65588028331435" lon="10.6836938534362"><ele>37.333333333333336</ele><time>2026-04-28T06:29:29.001Z</time></trkpt><trkpt lat="43.6560067915417" lon="10.683886598048352"><ele>36.0</ele><time>2026-04-28T06:29:30.002Z</time></trkpt><trkpt lat="43.656137386123696" lon="10.684082876998088"><ele>36.0</ele><time>2026-04-28T06:29:31.002Z</time></trkpt><trkpt lat="43.65627201545537" lon="10.684283111926856"><ele>36.0</ele><time>2026-04-28T06:29:32.002Z</time></trkpt><trkpt lat="43.656406817579075" lon="10.684485700860602"><ele>36.0</ele><time>2026-04-28T06:29:33.002Z</time></trkpt><trkpt lat="43.65654477351266" lon="10.684690458136352"><ele>36.666666666666664</ele><time>2026-04-28T06:29:34.002Z</time></trkpt><trkpt lat="43.65667743145022" lon="10.684902199065688"><ele>37.33333333333333</ele><time>2026-04-28T06:29:35.002Z</time></trkpt><trkpt lat="43.656814163819554" lon="10.6851191933652"><ele>38.0</ele><time>2026-04-28T06:29:36.002Z</time></trkpt><trkpt lat="43.65695266016362" lon="10.685342347386122"><ele>34.33333333333333</ele><time>2026-04-28T06:29:37.002Z</time></trkpt><trkpt lat="43.657084969906855" lon="10.685574959046512"><ele>30.666666666666664</ele><time>2026-04-28T06:29:38.002Z</time></trkpt><trkpt lat="43.657212320602824" lon="10.685821001965337"><ele>27.0</ele><time>2026-04-28T06:29:39.002Z</time></trkpt><trkpt lat="43.65732684987143" lon="10.686084384492265"><ele>28.5</ele><time>2026-04-28T06:29:40.002Z</time></trkpt><trkpt lat="43.65742964845247" lon="10.686361558522442"><ele>30.0</ele><time>2026-04-28T06:29:41.002Z</time></trkpt><trkpt lat="43.65752387325214" lon="10.686647576856414"><ele>26.0</ele><time>2026-04-28T06:29:42.002Z</time></trkpt><trkpt lat="43.65760105952187" lon="10.686948044588178"><ele>22.0</ele><time>2026-04-28T06:29:43.002Z</time></trkpt><trkpt lat="43.65766681224994" lon="10.687252820045556"><ele>22.0</ele><time>2026-04-28T06:29:44.002Z</time></trkpt><trkpt lat="43.657733878367104" lon="10.687554995628453"><ele>22.0</ele><time>2026-04-28T06:29:45.002Z</time></trkpt><trkpt lat="43.657802810089" lon="10.68785470329905"><ele>19.5</ele><time>2026-04-28T06:29:46Z</time></trkpt><trkpt lat="43.657873254980046" lon="10.688153722845167"><ele>17.0</ele><time>2026-04-28T06:29:47Z</time></trkpt><trkpt lat="43.65793941786984" lon="10.688449250816213"><ele>17.666666666666668</ele><time>2026-04-28T06:29:48Z</time></trkpt><trkpt lat="43.65800667049196" lon="10.688740916568321"><ele>18.333333333333332</ele><time>2026-04-28T06:29:49Z</time></trkpt><trkpt lat="43.65807235243914" lon="10.689021797263946"><ele>19.0</ele><time>2026-04-28T06:29:50Z</time></trkpt><trkpt lat="43.65813594621945" lon="10.689303021731103"><ele>18.666666666666664</ele><time>2026-04-28T06:29:51Z</time></trkpt><trkpt lat="43.6582025763622" lon="10.689579709620347"><ele>18.333333333333332</ele><time>2026-04-28T06:29:52Z</time></trkpt><trkpt lat="43.65826606487173" lon="10.689853084074306"><ele>18.0</ele><time>2026-04-28T06:29:53Z</time></trkpt><trkpt lat="43.658328917696025" lon="10.690124654625608"><ele>19.0</ele><time>2026-04-28T06:29:54Z</time></trkpt><trkpt lat="43.65839156474435" lon="10.690392233195936"><ele>20.0</ele><time>2026-04-28T06:29:55Z</time></trkpt><trkpt lat="43.658453882517335" lon="10.690659763046241"><ele>21.0</ele><time>2026-04-28T06:29:56Z</time></trkpt><trkpt lat="43.65851634248256" lon="10.69092443664617"><ele>22.333333333333336</ele><time>2026-04-28T06:29:57Z</time></trkpt><trkpt lat="43.658576476386244" lon="10.691189180750527"><ele>23.666666666666668</ele><time>2026-04-28T06:29:58Z</time></trkpt><trkpt lat="43.65863753945439" lon="10.69145126470559"><ele>25.0</ele><time>2026-04-28T06:29:59Z</time></trkpt><trkpt lat="43.658696963775384" lon="10.691709724169188"><ele>28.0</ele><time>2026-04-28T06:30:00Z</time></trkpt><trkpt lat="43.65875594835948" lon="10.691971246353528"><ele>31.0</ele><time>2026-04-28T06:30:01Z</time></trkpt><trkpt lat="43.65881840898193" lon="10.6922323807868"><ele>34.0</ele><time>2026-04-28T06:30:02Z</time></trkpt><trkpt lat="43.65887847544743" lon="10.692492496230635"><ele>34.0</ele><time>2026-04-28T06:30:03Z</time></trkpt><trkpt lat="43.658938219549725" lon="10.692747117281597"><ele>34.0</ele><time>2026-04-28T06:30:04Z</time></trkpt><trkpt lat="43.65899864160846" lon="10.693000958772208"><ele>34.0</ele><time>2026-04-28T06:30:05Z</time></trkpt><trkpt lat="43.65905794153677" lon="10.693251937350944"><ele>34.66666666666667</ele><time>2026-04-28T06:30:06Z</time></trkpt><trkpt lat="43.65911785856042" lon="10.69350241355617"><ele>35.333333333333336</ele><time>2026-04-28T06:30:07Z</time></trkpt><trkpt lat="43.65917644357917" lon="10.693755830256515"><ele>36.0</ele><time>2026-04-28T06:30:08Z</time></trkpt><trkpt lat="43.65923441852979" lon="10.694009256978873"><ele>37.333333333333336</ele><time>2026-04-28T06:30:09Z</time></trkpt><trkpt lat="43.659292371886465" lon="10.694260340818262"><ele>38.66666666666667</ele><time>2026-04-28T06:30:10Z</time></trkpt><trkpt lat="43.65935008613271" lon="10.694510958333625"><ele>40.0</ele><time>2026-04-28T06:30:11Z</time></trkpt><trkpt lat="43.65940511197841" lon="10.694759928041478"><ele>41.0</ele><time>2026-04-28T06:30:12Z</time></trkpt><trkpt lat="43.659458776297946" lon="10.695008678741436"><ele>42.0</ele><time>2026-04-28T06:30:13Z</time></trkpt><trkpt lat="43.65951194286351" lon="10.695252993623493"><ele>43.0</ele><time>2026-04-28T06:30:14Z</time></trkpt><trkpt lat="43.65956536759117" lon="10.695496817996641"><ele>43.0</ele><time>2026-04-28T06:30:15Z</time></trkpt><trkpt lat="43.65961667027133" lon="10.69573602429324"><ele>43.0</ele><time>2026-04-28T06:30:16Z</time></trkpt><trkpt lat="43.65967480705744" lon="10.695974025474634"><ele>43.0</ele><time>2026-04-28T06:30:17Z</time></trkpt><trkpt lat="43.65973057250739" lon="10.696212515374842"><ele>44.333333333333336</ele><time>2026-04-28T06:30:18Z</time></trkpt><trkpt lat="43.65978243211147" lon="10.696448337720552"><ele>45.666666666666664</ele><time>2026-04-28T06:30:19Z</time></trkpt><trkpt lat="43.65983606000086" lon="10.696683224893704"><ele>47.0</ele><time>2026-04-28T06:30:20Z</time></trkpt><trkpt lat="43.65989167445189" lon="10.696917271635076"><ele>48.666666666666664</ele><time>2026-04-28T06:30:21Z</time></trkpt><trkpt lat="43.65994745859805" lon="10.697153495888418"><ele>50.33333333333333</ele><time>2026-04-28T06:30:22Z</time></trkpt><trkpt lat="43.6600072733882" lon="10.697391599987764"><ele>52.0</ele><time>2026-04-28T06:30:23Z</time></trkpt><trkpt lat="43.66006446166922" lon="10.697627211921043"><ele>52.33333333333333</ele><time>2026-04-28T06:30:24Z</time></trkpt><trkpt lat="43.660124092907814" lon="10.69786837793498"><ele>52.66666666666667</ele><time>2026-04-28T06:30:25Z</time></trkpt><trkpt lat="43.66018487102946" lon="10.698110129561886"><ele>53.0</ele><time>2026-04-28T06:30:26.001Z</time></trkpt><trkpt lat="43.660247950354815" lon="10.698356296857325"><ele>49.66666666666667</ele><time>2026-04-28T06:30:27.001Z</time></trkpt><trkpt lat="43.66030851548763" lon="10.69860658315956"><ele>46.333333333333336</ele><time>2026-04-28T06:30:28.001Z</time></trkpt><trkpt lat="43.66033196983909" lon="10.698845788347287"><ele>43.0</ele><time>2026-04-28T06:30:29.001Z</time></trkpt><trkpt lat="43.660398843694296" lon="10.699102583328619"><ele>43.0</ele><time>2026-04-28T06:30:30.001Z</time></trkpt><trkpt lat="43.66046462142639" lon="10.69937281575024"><ele>43.0</ele><time>2026-04-28T06:30:31.001Z</time></trkpt><trkpt lat="43.66053303169564" lon="10.699638966547703"><ele>43.0</ele><time>2026-04-28T06:30:32.001Z</time></trkpt><trkpt lat="43.66060225559873" lon="10.699908544385751"><ele>43.0</ele><time>2026-04-28T06:30:33.001Z</time></trkpt><trkpt lat="43.66067644735723" lon="10.70018622086536"><ele>43.0</ele><time>2026-04-28T06:30:34.001Z</time></trkpt><trkpt lat="43.6607575593112" lon="10.70044839439878"><ele>43.0</ele><time>2026-04-28T06:30:35.001Z</time></trkpt><trkpt lat="43.66084277207709" lon="10.70070449559926"><ele>43.0</ele><time>2026-04-28T06:30:36.001Z</time></trkpt><trkpt lat="43.66093512157058" lon="10.700949987829548"><ele>43.0</ele><time>2026-04-28T06:30:37.001Z</time></trkpt><trkpt lat="43.66103039790681" lon="10.701191793663327"><ele>43.0</ele><time>2026-04-28T06:30:38.001Z</time></trkpt><trkpt lat="43.66112811852996" lon="10.701426991022602"><ele>43.0</ele><time>2026-04-28T06:30:39.001Z</time></trkpt><trkpt lat="43.66123392313339" lon="10.701661969853193"><ele>43.0</ele><time>2026-04-28T06:30:40.001Z</time></trkpt><trkpt lat="43.66134890322218" lon="10.70189985221269"><ele>43.0</ele><time>2026-04-28T06:30:41.001Z</time></trkpt><trkpt lat="43.661470173710555" lon="10.702143007050871"><ele>42.66666666666667</ele><time>2026-04-28T06:30:42.001Z</time></trkpt><trkpt lat="43.66159144485961" lon="10.702390234198624"><ele>42.333333333333336</ele><time>2026-04-28T06:30:43.001Z</time></trkpt><trkpt lat="43.66171601525635" lon="10.702654874854398"><ele>42.0</ele><time>2026-04-28T06:30:44.001Z</time></trkpt><trkpt lat="43.66184247878577" lon="10.702914550962626"><ele>38.333333333333336</ele><time>2026-04-28T06:30:45.001Z</time></trkpt><trkpt lat="43.66196033739254" lon="10.703178821717788"><ele>34.66666666666667</ele><time>2026-04-28T06:30:46.001Z</time></trkpt><trkpt lat="43.66207840958328" lon="10.70343372290158"><ele>31.0</ele><time>2026-04-28T06:30:47.001Z</time></trkpt><trkpt lat="43.662203279973106" lon="10.703696570348816"><ele>30.333333333333336</ele><time>2026-04-28T06:30:48.001Z</time></trkpt><trkpt lat="43.66232062256856" lon="10.703954947422154"><ele>29.666666666666664</ele><time>2026-04-28T06:30:49.001Z</time></trkpt><trkpt lat="43.66243877332562" lon="10.704213599396454"><ele>29.0</ele><time>2026-04-28T06:30:50.001Z</time></trkpt><trkpt lat="43.66255515316265" lon="10.70448357993413"><ele>29.5</ele><time>2026-04-28T06:30:51.001Z</time></trkpt><trkpt lat="43.662673056133364" lon="10.704760056498367"><ele>30.0</ele><time>2026-04-28T06:30:52.001Z</time></trkpt><trkpt lat="43.66278348613277" lon="10.705033147871323"><ele>28.0</ele><time>2026-04-28T06:30:53.001Z</time></trkpt><trkpt lat="43.66289922318774" lon="10.705314028449044"><ele>26.0</ele><time>2026-04-28T06:30:54.001Z</time></trkpt><trkpt lat="43.663011746140114" lon="10.705596011582474"><ele>26.0</ele><time>2026-04-28T06:30:55.001Z</time></trkpt><trkpt lat="43.66312058407664" lon="10.705878978043195"><ele>26.0</ele><time>2026-04-28T06:30:56.001Z</time></trkpt><trkpt lat="43.66323221657577" lon="10.706169223891475"><ele>25.5</ele><time>2026-04-28T06:30:57.001Z</time></trkpt><trkpt lat="43.66334307836744" lon="10.706460918326309"><ele>25.0</ele><time>2026-04-28T06:30:58.001Z</time></trkpt><trkpt lat="43.663450298648925" lon="10.706748588682142"><ele>25.0</ele><time>2026-04-28T06:30:59.001Z</time></trkpt><trkpt lat="43.66356062398141" lon="10.70703428940608"><ele>25.0</ele><time>2026-04-28T06:31:00.001Z</time></trkpt><trkpt lat="43.66366937882797" lon="10.707311027121523"><ele>25.0</ele><time>2026-04-28T06:31:01.001Z</time></trkpt><trkpt lat="43.66377907777295" lon="10.707584914533378"><ele>25.0</ele><time>2026-04-28T06:31:02.001Z</time></trkpt><trkpt lat="43.66389564797785" lon="10.707847235841104"><ele>25.0</ele><time>2026-04-28T06:31:03.001Z</time></trkpt><trkpt lat="43.66402031225485" lon="10.708112075236018"><ele>25.0</ele><time>2026-04-28T06:31:04.001Z</time></trkpt><trkpt lat="43.66415262330591" lon="10.70834922055274"><ele>25.0</ele><time>2026-04-28T06:31:05.001Z</time></trkpt><trkpt lat="43.66429190658593" lon="10.70858168133633"><ele>25.0</ele><time>2026-04-28T06:31:06.001Z</time></trkpt><trkpt lat="43.66443652994462" lon="10.708805965892656"><ele>25.0</ele><time>2026-04-28T06:31:07.001Z</time></trkpt><trkpt lat="43.66458608885567" lon="10.709028752526542"><ele>25.0</ele><time>2026-04-28T06:31:08.001Z</time></trkpt><trkpt lat="43.664742493944175" lon="10.709233871233934"><ele>25.0</ele><time>2026-04-28T06:31:09.001Z</time></trkpt><trkpt lat="43.66490510660426" lon="10.709425270366854"><ele>25.0</ele><time>2026-04-28T06:31:10.001Z</time></trkpt><trkpt lat="43.66507814082937" lon="10.709606095500558"><ele>25.0</ele><time>2026-04-28T06:31:11.001Z</time></trkpt><trkpt lat="43.66525908833523" lon="10.709782245381248"><ele>25.0</ele><time>2026-04-28T06:31:12.001Z</time></trkpt><trkpt lat="43.66545058621138" lon="10.709949318139525"><ele>23.0</ele><time>2026-04-28T06:31:13.001Z</time></trkpt><trkpt lat="43.66565129499879" lon="10.710116073315103"><ele>21.0</ele><time>2026-04-28T06:31:14.001Z</time></trkpt><trkpt lat="43.66585167301184" lon="10.710282276542916"><ele>21.0</ele><time>2026-04-28T06:31:15.001Z</time></trkpt><trkpt lat="43.66606083720905" lon="10.71045023824142"><ele>21.0</ele><time>2026-04-28T06:31:16.001Z</time></trkpt><trkpt lat="43.666263828208876" lon="10.710619187825188"><ele>21.0</ele><time>2026-04-28T06:31:17.001Z</time></trkpt><trkpt lat="43.666459948042515" lon="10.710785626776712"><ele>21.0</ele><time>2026-04-28T06:31:18.001Z</time></trkpt><trkpt lat="43.66666227484357" lon="10.710951497779078"><ele>20.5</ele><time>2026-04-28T06:31:19.001Z</time></trkpt><trkpt lat="43.66685942095164" lon="10.711124008265813"><ele>20.0</ele><time>2026-04-28T06:31:20.001Z</time></trkpt><trkpt lat="43.66705568655398" lon="10.711302960780236"><ele>19.5</ele><time>2026-04-28T06:31:21.001Z</time></trkpt><trkpt lat="43.66725376645246" lon="10.711489626302923"><ele>19.0</ele><time>2026-04-28T06:31:22.001Z</time></trkpt><trkpt lat="43.66744272723531" lon="10.711681544209362"><ele>19.0</ele><time>2026-04-28T06:31:23.001Z</time></trkpt><trkpt lat="43.66762848145508" lon="10.711875971220334"><ele>19.0</ele><time>2026-04-28T06:31:24.001Z</time></trkpt><trkpt lat="43.66780401922236" lon="10.712082875325796"><ele>20.0</ele><time>2026-04-28T06:31:25.002Z</time></trkpt><trkpt lat="43.66797675010301" lon="10.712299060589668"><ele>21.0</ele><time>2026-04-28T06:31:26.002Z</time></trkpt><trkpt lat="43.66813743320794" lon="10.71252318212232"><ele>20.5</ele><time>2026-04-28T06:31:27.002Z</time></trkpt><trkpt lat="43.668296640400385" lon="10.712754792448303"><ele>20.0</ele><time>2026-04-28T06:31:28.002Z</time></trkpt><trkpt lat="43.66844768965135" lon="10.712989318231813"><ele>20.0</ele><time>2026-04-28T06:31:29.002Z</time></trkpt><trkpt lat="43.66859319543011" lon="10.713229219197983"><ele>20.0</ele><time>2026-04-28T06:31:30.002Z</time></trkpt><trkpt lat="43.66873005068126" lon="10.71347092856462"><ele>20.0</ele><time>2026-04-28T06:31:31.002Z</time></trkpt><trkpt lat="43.668864069147055" lon="10.713715390633968"><ele>20.0</ele><time>2026-04-28T06:31:32.002Z</time></trkpt><trkpt lat="43.6689849725508" lon="10.713966691078426"><ele>20.0</ele><time>2026-04-28T06:31:33.002Z</time></trkpt><trkpt lat="43.66910917840856" lon="10.714217583283862"><ele>20.0</ele><time>2026-04-28T06:31:34.002Z</time></trkpt><trkpt lat="43.66921939186657" lon="10.714473148186011"><ele>20.0</ele><time>2026-04-28T06:31:35.002Z</time></trkpt><trkpt lat="43.66931200109672" lon="10.714736236350038"><ele>20.0</ele><time>2026-04-28T06:31:36.002Z</time></trkpt><trkpt lat="43.66940582830671" lon="10.715005363824407"><ele>20.0</ele><time>2026-04-28T06:31:37.002Z</time></trkpt><trkpt lat="43.669496905576054" lon="10.71527601763163"><ele>20.0</ele><time>2026-04-28T06:31:38.002Z</time></trkpt><trkpt lat="43.6695810924676" lon="10.715545590466824"><ele>20.0</ele><time>2026-04-28T06:31:39.002Z</time></trkpt><trkpt lat="43.669656342892395" lon="10.715812902141732"><ele>20.0</ele><time>2026-04-28T06:31:40.002Z</time></trkpt><trkpt lat="43.66972866230283" lon="10.716081280502497"><ele>20.0</ele><time>2026-04-28T06:31:41.002Z</time></trkpt><trkpt lat="43.6697947338019" lon="10.7163409974491"><ele>20.0</ele><time>2026-04-28T06:31:42.002Z</time></trkpt><trkpt lat="43.66986162578276" lon="10.71660835336319"><ele>20.0</ele><time>2026-04-28T06:31:43.002Z</time></trkpt><trkpt lat="43.66992652539996" lon="10.716871138867267"><ele>20.0</ele><time>2026-04-28T06:31:44.002Z</time></trkpt><trkpt lat="43.66999197808552" lon="10.717129222825443"><ele>20.0</ele><time>2026-04-28T06:31:45.002Z</time></trkpt><trkpt lat="43.670053557058544" lon="10.717385820330685"><ele>20.0</ele><time>2026-04-28T06:31:46.002Z</time></trkpt><trkpt lat="43.670110311041064" lon="10.717638870494355"><ele>20.0</ele><time>2026-04-28T06:31:47.002Z</time></trkpt><trkpt lat="43.670163802551" lon="10.717863242219005"><ele>20.0</ele><time>2026-04-28T06:31:48.002Z</time></trkpt><trkpt lat="43.670210901474256" lon="10.718059485105954"><ele>20.0</ele><time>2026-04-28T06:31:49.002Z</time></trkpt><trkpt lat="43.67025800829921" lon="10.718256627600777"><ele>20.0</ele><time>2026-04-28T06:31:50.002Z</time></trkpt><trkpt lat="43.670305587811335" lon="10.718455153562486"><ele>20.0</ele><time>2026-04-28T06:31:51.002Z</time></trkpt><trkpt lat="43.670355542027316" lon="10.71864809820019"><ele>20.0</ele><time>2026-04-28T06:31:52Z</time></trkpt><trkpt lat="43.670405865993025" lon="10.718846869207152"><ele>20.0</ele><time>2026-04-28T06:31:53Z</time></trkpt><trkpt lat="43.67045948318646" lon="10.71905064189635"><ele>20.0</ele><time>2026-04-28T06:31:54Z</time></trkpt><trkpt lat="43.670512883774705" lon="10.71926057095642"><ele>20.0</ele><time>2026-04-28T06:31:55Z</time></trkpt><trkpt lat="43.670566850655035" lon="10.719467261668466"><ele>20.666666666666668</ele><time>2026-04-28T06:31:56Z</time></trkpt><trkpt lat="43.67062386366145" lon="10.719674097199837"><ele>21.333333333333332</ele><time>2026-04-28T06:31:57Z</time></trkpt><trkpt lat="43.670676158392105" lon="10.719882596208164"><ele>22.0</ele><time>2026-04-28T06:31:58Z</time></trkpt><trkpt lat="43.67072548048645" lon="10.720089874628684"><ele>22.333333333333332</ele><time>2026-04-28T06:31:59Z</time></trkpt><trkpt lat="43.670774825767154" lon="10.720297077453168"><ele>22.666666666666668</ele><time>2026-04-28T06:32:00Z</time></trkpt><trkpt lat="43.67082365922465" lon="10.720506430809063"><ele>23.0</ele><time>2026-04-28T06:32:01Z</time></trkpt><trkpt lat="43.67087459558895" lon="10.720718588686877"><ele>23.0</ele><time>2026-04-28T06:32:02Z</time></trkpt><trkpt lat="43.670924168214675" lon="10.720933359645539"><ele>23.0</ele><time>2026-04-28T06:32:03Z</time></trkpt><trkpt lat="43.67097607846135" lon="10.72114354867707"><ele>23.0</ele><time>2026-04-28T06:32:04Z</time></trkpt><trkpt lat="43.67102777542832" lon="10.721351783301332"><ele>22.666666666666668</ele><time>2026-04-28T06:32:05Z</time></trkpt><trkpt lat="43.67108115901801" lon="10.721574346255988"><ele>22.333333333333332</ele><time>2026-04-28T06:32:06Z</time></trkpt><trkpt lat="43.67113536251275" lon="10.72180013363648"><ele>22.0</ele><time>2026-04-28T06:32:07Z</time></trkpt><trkpt lat="43.67118969147546" lon="10.72202524055967"><ele>21.666666666666664</ele><time>2026-04-28T06:32:08Z</time></trkpt><trkpt lat="43.67124031456792" lon="10.722247637732771"><ele>21.333333333333332</ele><time>2026-04-28T06:32:09Z</time></trkpt><trkpt lat="43.671294234580934" lon="10.722471658630043"><ele>21.0</ele><time>2026-04-28T06:32:10Z</time></trkpt><trkpt lat="43.6713509593162" lon="10.722696456306442"><ele>21.0</ele><time>2026-04-28T06:32:11Z</time></trkpt><trkpt lat="43.67140665905543" lon="10.722922686419647"><ele>21.0</ele><time>2026-04-28T06:32:12Z</time></trkpt><trkpt lat="43.67146163043466" lon="10.723152436450752"><ele>21.0</ele><time>2026-04-28T06:32:13Z</time></trkpt><trkpt lat="43.671516045779846" lon="10.723383663486402"><ele>21.333333333333332</ele><time>2026-04-28T06:32:14Z</time></trkpt><trkpt lat="43.671566338144274" lon="10.723621032319054"><ele>21.666666666666664</ele><time>2026-04-28T06:32:15Z</time></trkpt><trkpt lat="43.671616920775584" lon="10.72386431465926"><ele>22.0</ele><time>2026-04-28T06:32:16Z</time></trkpt><trkpt lat="43.67165368309966" lon="10.724109795926843"><ele>22.0</ele><time>2026-04-28T06:32:17Z</time></trkpt><trkpt lat="43.67168636546795" lon="10.724357776168713"><ele>22.0</ele><time>2026-04-28T06:32:18Z</time></trkpt><trkpt lat="43.671715225753836" lon="10.72460736042686"><ele>22.0</ele><time>2026-04-28T06:32:19Z</time></trkpt><trkpt lat="43.671734081086065" lon="10.724855459656167"><ele>22.333333333333332</ele><time>2026-04-28T06:32:20Z</time></trkpt><trkpt lat="43.67175262187078" lon="10.725108905557718"><ele>22.666666666666668</ele><time>2026-04-28T06:32:21Z</time></trkpt><trkpt lat="43.67176630988515" lon="10.72536186618584"><ele>23.0</ele><time>2026-04-28T06:32:22Z</time></trkpt><trkpt lat="43.67177789690231" lon="10.725618368263182"><ele>22.333333333333336</ele><time>2026-04-28T06:32:23Z</time></trkpt><trkpt lat="43.67178319116345" lon="10.725872403719695"><ele>21.666666666666668</ele><time>2026-04-28T06:32:24Z</time></trkpt><trkpt lat="43.67178300687306" lon="10.726128018364435"><ele>21.0</ele><time>2026-04-28T06:32:25.001Z</time></trkpt><trkpt lat="43.67177761672305" lon="10.726385963235987"><ele>21.0</ele><time>2026-04-28T06:32:26.001Z</time></trkpt><trkpt lat="43.67176959476879" lon="10.726641775013361"><ele>21.0</ele><time>2026-04-28T06:32:27.001Z</time></trkpt><trkpt lat="43.671757624615985" lon="10.726900417158866"><ele>21.0</ele><time>2026-04-28T06:32:28.001Z</time></trkpt><trkpt lat="43.67173710852789" lon="10.727163456817703"><ele>22.666666666666664</ele><time>2026-04-28T06:32:29.001Z</time></trkpt><trkpt lat="43.671713604915446" lon="10.727428066396554"><ele>24.333333333333332</ele><time>2026-04-28T06:32:30.001Z</time></trkpt><trkpt lat="43.671690750127446" lon="10.727689897752041"><ele>26.0</ele><time>2026-04-28T06:32:31.001Z</time></trkpt><trkpt lat="43.67166783851189" lon="10.727951611837264"><ele>26.333333333333332</ele><time>2026-04-28T06:32:32.001Z</time></trkpt><trkpt lat="43.6716442528475" lon="10.728210972933711"><ele>26.666666666666664</ele><time>2026-04-28T06:32:33.001Z</time></trkpt><trkpt lat="43.67162014400984" lon="10.728469558048774"><ele>27.0</ele><time>2026-04-28T06:32:34.001Z</time></trkpt><trkpt lat="43.671597913232866" lon="10.72873252698047"><ele>26.333333333333336</ele><time>2026-04-28T06:32:35.001Z</time></trkpt><trkpt lat="43.671574601347906" lon="10.72899676265606"><ele>25.666666666666668</ele><time>2026-04-28T06:32:36.001Z</time></trkpt><trkpt lat="43.67155187879014" lon="10.72926378068688"><ele>25.0</ele><time>2026-04-28T06:32:37.001Z</time></trkpt><trkpt lat="43.67152838768832" lon="10.729532810331705"><ele>25.0</ele><time>2026-04-28T06:32:38.001Z</time></trkpt><trkpt lat="43.67150183951851" lon="10.729802079217903"><ele>25.0</ele><time>2026-04-28T06:32:39.001Z</time></trkpt><trkpt lat="43.67147657260029" lon="10.730073028313994"><ele>25.0</ele><time>2026-04-28T06:32:40.001Z</time></trkpt><trkpt lat="43.67145315973592" lon="10.730345064352722"><ele>24.666666666666668</ele><time>2026-04-28T06:32:41.001Z</time></trkpt><trkpt lat="43.671428113024845" lon="10.730618706672772"><ele>24.333333333333336</ele><time>2026-04-28T06:32:42.001Z</time></trkpt><trkpt lat="43.67140014650046" lon="10.730885765203258"><ele>24.0</ele><time>2026-04-28T06:32:43.001Z</time></trkpt><trkpt lat="43.67138730745567" lon="10.731154573213544"><ele>24.0</ele><time>2026-04-28T06:32:44.001Z</time></trkpt><trkpt lat="43.671364304492926" lon="10.7313962481609"><ele>24.0</ele><time>2026-04-28T06:32:45.001Z</time></trkpt><trkpt lat="43.67133731278984" lon="10.731674924649777"><ele>24.0</ele><time>2026-04-28T06:32:46.001Z</time></trkpt><trkpt lat="43.67131426173883" lon="10.731935735850568"><ele>24.0</ele><time>2026-04-28T06:32:47.001Z</time></trkpt><trkpt lat="43.67129613419033" lon="10.732187540025302"><ele>24.0</ele><time>2026-04-28T06:32:48.001Z</time></trkpt><trkpt lat="43.67127141316437" lon="10.732446928666617"><ele>24.0</ele><time>2026-04-28T06:32:49.001Z</time></trkpt><trkpt lat="43.67124717836159" lon="10.732701590370185"><ele>24.333333333333336</ele><time>2026-04-28T06:32:50.001Z</time></trkpt><trkpt lat="43.67122428462224" lon="10.732953593094463"><ele>24.666666666666668</ele><time>2026-04-28T06:32:51.001Z</time></trkpt><trkpt lat="43.671202449760784" lon="10.733201431150285"><ele>25.0</ele><time>2026-04-28T06:32:52.001Z</time></trkpt><trkpt lat="43.67118042904079" lon="10.733451651761564"><ele>25.0</ele><time>2026-04-28T06:32:53.001Z</time></trkpt><trkpt lat="43.67115831221135" lon="10.733707257312043"><ele>25.0</ele><time>2026-04-28T06:32:54.001Z</time></trkpt><trkpt lat="43.67113806055765" lon="10.733959610451548"><ele>25.0</ele><time>2026-04-28T06:32:55.001Z</time></trkpt><trkpt lat="43.671116091095016" lon="10.734211410704413"><ele>25.333333333333336</ele><time>2026-04-28T06:32:56.001Z</time></trkpt><trkpt lat="43.67109425964353" lon="10.734464055272307"><ele>25.666666666666664</ele><time>2026-04-28T06:32:57.001Z</time></trkpt><trkpt lat="43.67107256824662" lon="10.734715044252638"><ele>26.0</ele><time>2026-04-28T06:32:58.001Z</time></trkpt><trkpt lat="43.6710517669202" lon="10.734968713690355"><ele>26.0</ele><time>2026-04-28T06:32:59.001Z</time></trkpt><trkpt lat="43.67103187638" lon="10.735220382244657"><ele>26.0</ele><time>2026-04-28T06:33:00.001Z</time></trkpt></trkseg></trk></gpx>